createdAt,value
2023-04-05T00:01:34.817Z,12.80
2023-04-05T00:04:03.819Z,11.00
2023-04-05T00:06:34.489Z,9.40
2023-04-05T00:09:04.463Z,6.53
2023-04-05T00:11:34.461Z,5.97
2023-04-05T00:14:04.608Z,6.03
2023-04-05T00:16:34.069Z,5.50
2023-04-05T00:19:02.677Z,5.25
2023-04-05T00:21:33.164Z,5.28
2023-04-05T00:24:01.704Z,5.25
2023-04-05T00:26:30.237Z,5.47
2023-04-05T00:29:00.005Z,5.78
2023-04-05T00:31:29.768Z,5.88
2023-04-05T00:33:58.425Z,4.90
2023-04-05T00:36:27.707Z,5.30
2023-04-05T00:38:57.585Z,5.32
2023-04-05T00:41:26.226Z,4.82
2023-04-05T00:43:54.905Z,4.85
2023-04-05T00:46:23.850Z,5.75
2023-04-05T00:48:52.415Z,5.40
2023-04-05T00:51:21.711Z,4.80
2023-04-05T00:53:52.822Z,5.72
2023-04-05T00:56:24.296Z,5.63
2023-04-05T00:58:53.223Z,5.07
2023-04-05T01:01:23.450Z,5.25
2023-04-05T01:03:54.815Z,5.65
2023-04-05T01:06:33.236Z,5.60
2023-04-05T01:09:06.337Z,5.97
2023-04-05T01:11:39.721Z,5.35
2023-04-05T01:14:08.416Z,5.25
2023-04-05T01:16:36.944Z,5.82
2023-04-05T01:19:05.858Z,5.35
2023-04-05T01:21:53.780Z,5.60
2023-04-05T01:24:38.741Z,5.55
2023-04-05T01:27:13.891Z,5.38
2023-04-05T01:29:52.065Z,5.53
2023-04-05T01:32:31.647Z,5.47
2023-04-05T01:35:07.591Z,5.07
2023-04-05T01:37:37.562Z,5.35
2023-04-05T01:40:07.502Z,5.18
2023-04-05T01:42:37.790Z,4.88
2023-04-05T01:45:08.829Z,4.57
2023-04-05T01:47:37.449Z,5.38
2023-04-05T01:50:07.147Z,5.85
2023-04-05T01:52:36.013Z,4.95
2023-04-05T01:55:04.696Z,4.55
2023-04-05T01:57:33.337Z,4.88
2023-04-05T02:00:02.006Z,4.93
2023-04-05T02:02:32.095Z,5.50
2023-04-05T02:05:00.746Z,4.85
2023-04-05T02:07:29.382Z,5.32
2023-04-05T02:09:57.900Z,5.32
2023-04-05T02:12:26.631Z,4.28
2023-04-05T02:14:55.222Z,4.13
2023-04-05T02:17:23.779Z,4.40
2023-04-05T02:19:53.862Z,4.72
2023-04-05T02:22:22.571Z,4.65
2023-04-05T02:24:51.970Z,4.78
2023-04-05T02:27:20.580Z,4.63
2023-04-05T02:29:49.173Z,4.28
2023-04-05T02:32:17.803Z,4.78
2023-04-05T02:34:46.594Z,4.75
2023-04-05T02:37:16.581Z,5.03
2023-04-05T02:39:45.170Z,5.50
2023-04-05T02:42:14.947Z,4.93
2023-04-05T02:44:43.652Z,4.53
2023-04-05T02:47:21.191Z,4.75
2023-04-05T02:49:54.573Z,4.20
2023-04-05T02:52:26.696Z,4.90
2023-04-05T02:54:55.373Z,4.28
2023-04-05T02:57:28.318Z,4.40
2023-04-05T03:00:05.845Z,5.30
2023-04-05T03:02:37.585Z,4.60
2023-04-05T03:05:09.300Z,4.20
2023-04-05T03:07:42.512Z,4.18
2023-04-05T03:10:13.806Z,4.13
2023-04-05T03:12:43.200Z,4.63
2023-04-05T03:15:13.528Z,4.40
2023-04-05T03:17:45.928Z,5.05
2023-04-05T03:20:15.729Z,4.05
2023-04-05T03:22:46.980Z,4.43
2023-04-05T03:25:17.413Z,4.05
2023-04-05T03:27:49.274Z,4.57
2023-04-05T03:30:19.620Z,4.32
2023-04-05T03:32:54.977Z,4.80
2023-04-05T03:35:36.041Z,5.13
2023-04-05T03:38:08.414Z,5.05
2023-04-05T03:40:39.980Z,4.78
2023-04-05T03:43:11.409Z,4.55
2023-04-05T03:45:40.571Z,4.93
2023-04-05T03:48:09.570Z,4.75
2023-04-05T03:50:38.222Z,4.93
2023-04-05T03:53:08.141Z,4.30
2023-04-05T03:55:37.508Z,5.00
2023-04-05T03:58:08.083Z,5.18
2023-04-05T04:00:38.293Z,5.25
2023-04-05T04:03:15.111Z,5.13
2023-04-05T04:05:47.480Z,5.60
2023-04-05T04:08:17.511Z,4.75
2023-04-05T04:10:46.132Z,4.68
2023-04-05T04:13:20.397Z,4.65
2023-04-05T04:15:57.675Z,4.90
2023-04-05T04:18:45.936Z,4.68
2023-04-05T04:21:33.641Z,5.28
2023-04-05T04:24:19.486Z,4.53
2023-04-05T04:27:06.917Z,4.50
2023-04-05T04:29:56.709Z,4.60
2023-04-05T04:32:53.335Z,4.85
2023-04-05T04:35:46.794Z,4.75
2023-04-05T04:38:35.734Z,4.60
2023-04-05T04:41:35.968Z,4.55
2023-04-05T04:44:14.669Z,4.68
2023-04-05T04:47:17.478Z,4.97
2023-04-05T04:50:00.218Z,4.07
2023-04-05T04:52:30.546Z,4.20
2023-04-05T04:54:59.256Z,4.33
2023-04-05T04:57:29.327Z,4.23
2023-04-05T04:59:57.979Z,4.80
2023-04-05T05:02:28.199Z,4.67
2023-04-05T05:04:58.515Z,4.67
2023-04-05T05:07:27.170Z,4.25
2023-04-05T05:09:55.767Z,4.50
2023-04-05T05:12:24.732Z,4.13
2023-04-05T05:14:54.762Z,4.60
2023-04-05T05:17:25.659Z,4.03
2023-04-05T05:19:55.809Z,5.30
2023-04-05T05:22:25.098Z,4.87
2023-04-05T05:24:53.997Z,4.67
2023-04-05T05:27:23.017Z,4.73
2023-04-05T05:29:51.722Z,5.13
2023-04-05T05:32:23.115Z,4.77
2023-04-05T05:34:51.689Z,4.80
2023-04-05T05:37:20.367Z,5.07
2023-04-05T05:39:48.917Z,4.68
2023-04-05T05:42:19.100Z,4.60
2023-04-05T05:44:47.757Z,5.20
2023-04-05T05:47:16.422Z,4.78
2023-04-05T05:49:46.398Z,4.90
2023-04-05T05:52:15.609Z,4.80
2023-04-05T05:54:44.198Z,5.00
2023-04-05T05:57:13.090Z,5.37
2023-04-05T05:59:42.053Z,5.13
2023-04-05T06:02:11.313Z,5.30
2023-04-05T06:04:40.492Z,5.60
2023-04-05T06:07:11.152Z,6.03
2023-04-05T06:09:39.771Z,5.55
2023-04-05T06:12:08.445Z,5.80
2023-04-05T06:14:37.059Z,6.28
2023-04-05T06:17:05.936Z,5.40
2023-04-05T06:19:34.519Z,5.47
2023-04-05T06:22:03.068Z,5.90
2023-04-05T06:24:33.104Z,5.70
2023-04-05T06:27:02.198Z,6.15
2023-04-05T06:29:31.217Z,5.53
2023-04-05T06:31:59.850Z,5.53
2023-04-05T06:34:28.674Z,5.63
2023-04-05T06:36:57.280Z,5.75
2023-04-05T06:39:26.190Z,6.50
2023-04-05T06:41:56.396Z,5.97
2023-04-05T06:44:29.158Z,6.47
2023-04-05T06:46:57.811Z,6.38
2023-04-05T06:49:27.624Z,6.57
2023-04-05T06:51:56.270Z,6.65
2023-04-05T06:54:25.160Z,7.00
2023-04-05T06:56:56.677Z,7.15
2023-04-05T06:59:25.832Z,7.03
2023-04-05T07:01:54.427Z,7.40
2023-04-05T07:04:23.132Z,7.20
2023-04-05T07:06:52.190Z,8.15
2023-04-05T07:09:22.280Z,7.90
2023-04-05T07:11:50.978Z,7.18
2023-04-05T07:14:20.985Z,7.53
2023-04-05T07:16:50.051Z,6.97
2023-04-05T07:19:18.865Z,6.53
2023-04-05T07:21:47.588Z,6.78
2023-04-05T07:24:16.201Z,6.38
2023-04-05T07:26:45.144Z,6.82
2023-04-05T07:29:14.187Z,6.72
2023-04-05T07:31:44.460Z,6.53
2023-04-05T07:34:13.849Z,7.05
2023-04-05T07:36:42.422Z,6.45
2023-04-05T07:39:11.006Z,6.68
2023-04-05T07:41:40.604Z,5.93
2023-04-05T07:44:11.430Z,6.60
2023-04-05T07:46:46.153Z,6.15
2023-04-05T07:49:17.863Z,5.88
2023-04-05T07:51:48.129Z,6.07
2023-04-05T07:54:16.664Z,6.15
2023-04-05T07:56:45.245Z,5.30
2023-04-05T07:59:14.995Z,5.30
2023-04-05T08:01:44.135Z,5.05
2023-04-05T08:04:13.180Z,4.22
2023-04-05T08:06:43.244Z,4.40
2023-04-05T08:09:12.136Z,4.90
2023-04-05T08:11:40.959Z,4.60
2023-04-05T08:14:09.528Z,4.70
2023-04-05T08:16:38.305Z,4.93
2023-04-05T08:19:06.857Z,4.95
2023-04-05T08:21:35.879Z,4.50
2023-04-05T08:24:06.374Z,4.35
2023-04-05T08:26:35.024Z,4.55
2023-04-05T08:29:03.659Z,4.18
2023-04-05T08:31:33.879Z,3.90
2023-04-05T08:34:02.480Z,4.53
2023-04-05T08:36:31.006Z,4.20
2023-04-05T08:38:59.553Z,4.22
2023-04-05T08:41:36.300Z,4.43
2023-04-05T08:44:05.775Z,4.30
2023-04-05T08:46:35.997Z,4.00
2023-04-05T08:49:07.169Z,3.97
2023-04-05T08:51:39.145Z,4.35
2023-04-05T08:54:07.974Z,4.18
2023-04-05T08:56:37.968Z,4.13
2023-04-05T08:59:07.955Z,4.63
2023-04-05T09:01:40.413Z,3.70
2023-04-05T09:04:13.424Z,4.10
2023-04-05T09:06:42.001Z,4.03
2023-04-05T09:09:10.699Z,4.50
2023-04-05T09:11:41.645Z,4.20
2023-04-05T09:14:11.705Z,4.43
2023-04-05T09:16:42.235Z,3.80
2023-04-05T09:19:11.566Z,4.22
2023-04-05T09:21:59.337Z,3.95
2023-04-05T09:24:36.893Z,3.70
2023-04-05T09:27:08.676Z,4.50
2023-04-05T09:29:37.998Z,4.07
2023-04-05T09:32:09.535Z,4.05
2023-04-05T09:34:38.935Z,3.90
2023-04-05T09:37:15.360Z,4.15
2023-04-05T09:39:45.071Z,4.55
2023-04-05T09:42:16.809Z,4.13
2023-04-05T09:44:56.117Z,4.45
2023-04-05T09:47:27.428Z,4.35
2023-04-05T09:49:59.437Z,4.30
2023-04-05T09:52:29.195Z,3.90
2023-04-05T09:54:59.930Z,4.40
2023-04-05T09:57:34.357Z,4.05
2023-04-05T10:00:04.322Z,3.78
2023-04-05T10:02:43.424Z,4.10
2023-04-05T10:05:13.993Z,4.25
2023-04-05T10:07:42.915Z,4.00
2023-04-05T10:10:13.033Z,4.65
2023-04-05T10:12:45.147Z,4.47
2023-04-05T10:15:14.321Z,4.25
2023-04-05T10:17:49.628Z,4.65
2023-04-05T10:20:19.687Z,4.03
2023-04-05T10:23:09.126Z,4.32
2023-04-05T10:25:52.573Z,4.35
2023-04-05T10:28:31.690Z,4.07
2023-04-05T10:31:11.142Z,4.00
2023-04-05T10:33:44.212Z,3.95
2023-04-05T10:36:23.256Z,4.10
2023-04-05T10:39:02.430Z,4.05
2023-04-05T10:41:35.083Z,4.15
2023-04-05T10:44:14.853Z,4.35
2023-04-05T10:46:48.099Z,4.15
2023-04-05T10:49:23.654Z,3.83
2023-04-05T10:51:52.608Z,4.28
2023-04-05T10:54:21.733Z,4.60
2023-04-05T10:56:51.703Z,4.32
2023-04-05T10:59:23.138Z,4.47
2023-04-05T11:01:52.314Z,4.15
2023-04-05T11:04:21.560Z,4.25
2023-04-05T11:07:14.172Z,4.20
2023-04-05T11:09:53.386Z,4.18
2023-04-05T11:12:43.828Z,4.15
2023-04-05T11:15:34.941Z,4.80
2023-04-05T11:18:07.912Z,4.15
2023-04-05T11:20:47.700Z,3.95
2023-04-05T11:23:18.719Z,4.38
2023-04-05T11:25:49.255Z,4.00
2023-04-05T11:28:25.854Z,4.38
2023-04-05T11:30:58.899Z,4.30
2023-04-05T11:33:57.292Z,4.80
2023-04-05T11:36:37.791Z,5.03
2023-04-05T11:39:33.192Z,4.20
2023-04-05T11:42:04.208Z,4.32
2023-04-05T11:44:45.308Z,4.10
2023-04-05T11:47:18.455Z,5.18
2023-04-05T11:49:50.999Z,4.53
2023-04-05T11:52:22.475Z,4.50
2023-04-05T11:54:51.200Z,5.07
2023-04-05T11:57:22.466Z,4.60
2023-04-05T11:59:53.144Z,4.68
2023-04-05T12:02:23.400Z,4.40
2023-04-05T12:04:57.260Z,5.00
2023-04-05T12:07:29.096Z,4.47
2023-04-05T12:09:59.384Z,4.68
2023-04-05T12:12:28.212Z,5.10
2023-04-05T12:15:03.266Z,5.82
2023-04-05T12:17:44.313Z,5.45
2023-04-05T12:20:14.418Z,5.15
2023-04-05T12:22:44.301Z,4.80
2023-04-05T12:25:14.060Z,4.65
2023-04-05T12:27:43.316Z,4.97
2023-04-05T12:30:17.060Z,4.70
2023-04-05T12:32:48.704Z,4.32
2023-04-05T12:35:18.225Z,4.40
2023-04-05T12:37:47.657Z,5.13
2023-04-05T12:40:21.806Z,5.00
2023-04-05T12:42:50.858Z,4.75
2023-04-05T12:45:19.812Z,4.20
2023-04-05T12:47:54.438Z,5.03
2023-04-05T12:50:28.733Z,5.57
2023-04-05T12:52:59.338Z,5.60
2023-04-05T12:55:29.060Z,5.20
2023-04-05T12:58:00.383Z,4.78
2023-04-05T13:00:31.163Z,6.13
2023-04-05T13:03:01.625Z,5.65
2023-04-05T13:05:31.324Z,5.80
2023-04-05T13:08:00.274Z,5.40
2023-04-05T13:10:28.940Z,5.45
2023-04-05T13:12:58.002Z,5.50
2023-04-05T13:15:27.226Z,5.20
2023-04-05T13:17:55.840Z,5.63
2023-04-05T13:20:26.201Z,5.90
2023-04-05T13:22:54.659Z,5.45
2023-04-05T13:25:23.414Z,5.78
2023-04-05T13:27:52.035Z,5.45
2023-04-05T13:30:20.944Z,6.05
2023-04-05T13:32:49.536Z,5.47
2023-04-05T13:35:18.059Z,6.13
2023-04-05T13:37:49.661Z,6.32
2023-04-05T13:40:18.492Z,5.93
2023-04-05T13:42:47.875Z,6.10
2023-04-05T13:45:16.603Z,6.30
2023-04-05T13:47:45.286Z,5.93
2023-04-05T13:50:14.690Z,6.05
2023-04-05T13:52:43.412Z,5.90
2023-04-05T13:55:13.450Z,5.75
2023-04-05T13:57:42.019Z,5.88
2023-04-05T14:00:12.085Z,6.28
2023-04-05T14:02:41.103Z,5.68
2023-04-05T14:05:10.333Z,6.47
2023-04-05T14:07:38.975Z,5.78
2023-04-05T14:10:08.358Z,5.88
2023-04-05T14:12:38.998Z,6.47
2023-04-05T14:15:08.683Z,5.32
2023-04-05T14:17:37.355Z,6.03
2023-04-05T14:20:06.930Z,6.25
2023-04-05T14:22:35.592Z,6.25
2023-04-05T14:25:04.863Z,6.10
2023-04-05T14:27:33.908Z,6.32
2023-04-05T14:30:04.023Z,6.22
2023-04-05T14:32:33.906Z,6.18
2023-04-05T14:35:02.807Z,6.38
2023-04-05T14:37:31.480Z,6.05
2023-04-05T14:40:00.232Z,5.13
2023-04-05T14:42:41.048Z,5.60
2023-04-05T14:45:16.478Z,5.50
2023-04-05T14:47:45.398Z,5.78
2023-04-05T14:50:14.074Z,6.22
2023-04-05T14:52:42.841Z,5.38
2023-04-05T14:55:13.439Z,5.55
2023-04-05T14:57:42.483Z,6.30
2023-04-05T15:00:13.848Z,5.22
2023-04-05T15:02:45.987Z,6.13
2023-04-05T15:05:14.848Z,5.68
2023-04-05T15:07:43.506Z,6.07
2023-04-05T15:10:12.475Z,5.85
2023-04-05T15:12:41.141Z,6.78
2023-04-05T15:15:10.365Z,6.80
2023-04-05T15:17:39.111Z,6.38
2023-04-05T15:20:10.280Z,6.03
2023-04-05T15:22:40.893Z,6.55
2023-04-05T15:25:10.742Z,6.75
2023-04-05T15:27:39.378Z,6.40
2023-04-05T15:30:09.367Z,6.30
2023-04-05T15:32:38.408Z,6.38
2023-04-05T15:35:09.230Z,6.60
2023-04-05T15:37:38.368Z,5.68
2023-04-05T15:40:08.680Z,6.03
2023-04-05T15:42:37.433Z,6.28
2023-04-05T15:45:07.265Z,6.07
2023-04-05T15:47:36.222Z,5.95
2023-04-05T15:50:05.442Z,5.85
2023-04-05T15:52:36.565Z,5.97
2023-04-05T15:55:05.788Z,5.53
2023-04-05T15:57:34.548Z,6.30
2023-04-05T16:00:03.464Z,6.13
2023-04-05T16:02:33.497Z,6.90
2023-04-05T16:05:02.280Z,6.55
2023-04-05T16:07:31.236Z,7.18
2023-04-05T16:10:01.384Z,7.10
2023-04-05T16:12:30.054Z,6.68
2023-04-05T16:14:58.744Z,6.65
2023-04-05T16:17:27.887Z,6.93
2023-04-05T16:19:57.267Z,7.30
2023-04-05T16:22:26.549Z,7.93
2023-04-05T16:24:55.146Z,7.43
2023-04-05T16:27:25.138Z,7.13
2023-04-05T16:29:53.939Z,7.13
2023-04-05T16:32:22.857Z,6.75
2023-04-05T16:34:51.672Z,7.18
2023-04-05T16:37:20.830Z,6.65
2023-04-05T16:39:49.542Z,7.10
2023-04-05T16:42:18.541Z,6.53
2023-04-05T16:44:48.631Z,6.55
2023-04-05T16:47:17.295Z,6.57
2023-04-05T16:49:46.109Z,6.45
2023-04-05T16:52:15.004Z,6.90
2023-04-05T16:54:43.777Z,6.90
2023-04-05T16:57:12.588Z,6.35
2023-04-05T16:59:42.113Z,6.70
2023-04-05T17:02:12.307Z,7.00
2023-04-05T17:04:41.495Z,6.75
2023-04-05T17:07:10.758Z,6.85
2023-04-05T17:09:39.453Z,6.72
2023-04-05T17:12:09.202Z,7.32
2023-04-05T17:14:39.762Z,7.07
2023-04-05T17:17:08.528Z,7.20
2023-04-05T17:19:38.513Z,6.60
2023-04-05T17:22:07.130Z,7.32
2023-04-05T17:24:36.030Z,6.30
2023-04-05T17:27:05.344Z,6.80
2023-04-05T17:29:34.031Z,7.45
2023-04-05T17:32:02.792Z,7.25
2023-04-05T17:34:31.743Z,7.30
2023-04-05T17:37:01.950Z,7.28
2023-04-05T17:39:30.621Z,6.80
2023-04-05T17:41:59.319Z,6.72
2023-04-05T17:44:30.274Z,6.30
2023-04-05T17:47:08.407Z,6.35
2023-04-05T17:49:38.080Z,6.25
2023-04-05T17:52:08.829Z,7.00
2023-04-05T17:54:38.311Z,6.60
2023-04-05T17:57:07.141Z,6.43
2023-04-05T17:59:36.577Z,6.43
2023-04-05T18:02:05.448Z,5.97
2023-04-05T18:04:34.147Z,6.47
2023-04-05T18:07:02.956Z,6.00
2023-04-05T18:09:34.037Z,6.68
2023-04-05T18:12:02.793Z,7.03
2023-04-05T18:14:31.750Z,6.50
2023-04-05T18:17:00.542Z,6.63
2023-04-05T18:19:29.314Z,6.20
2023-04-05T18:21:58.024Z,6.60
2023-04-05T18:24:26.859Z,6.63
2023-04-05T18:26:57.434Z,6.93
2023-04-05T18:29:28.592Z,6.43
2023-04-05T18:31:57.684Z,6.35
2023-04-05T18:34:26.441Z,6.95
2023-04-05T18:36:55.140Z,7.13
2023-04-05T18:39:25.105Z,7.15
2023-04-05T18:41:56.967Z,7.45
2023-04-05T18:44:26.027Z,8.00
2023-04-05T18:46:54.877Z,10.13
2023-04-05T18:49:23.550Z,11.82
2023-04-05T18:51:52.281Z,11.35
2023-04-05T18:54:20.966Z,10.80
2023-04-05T18:56:49.661Z,8.73
2023-04-05T18:59:19.958Z,9.98
2023-04-05T19:01:48.991Z,8.38
2023-04-05T19:04:17.898Z,8.48
2023-04-05T19:06:46.673Z,8.50
2023-04-05T19:09:16.647Z,8.10
2023-04-05T19:11:45.379Z,8.05
2023-04-05T19:14:14.078Z,8.43
2023-04-05T19:16:44.195Z,7.80
2023-04-05T19:19:12.887Z,8.05
2023-04-05T19:21:41.517Z,8.00
2023-04-05T19:24:13.109Z,8.55
2023-04-05T19:26:42.067Z,7.88
2023-04-05T19:29:10.915Z,8.10
2023-04-05T19:31:40.049Z,8.25
2023-04-05T19:34:10.202Z,7.35
2023-04-05T19:36:39.244Z,7.85
2023-04-05T19:39:08.841Z,7.97
2023-04-05T19:41:37.936Z,6.90
2023-04-05T19:44:10.545Z,6.93
2023-04-05T19:46:40.969Z,7.00
2023-04-05T19:49:17.870Z,7.82
2023-04-05T19:51:47.382Z,7.97
2023-04-05T19:54:19.297Z,7.88
2023-04-05T19:56:48.112Z,7.50
2023-04-05T19:59:28.882Z,7.78
2023-04-05T20:01:58.012Z,8.00
2023-04-05T20:04:28.716Z,8.25
2023-04-05T20:06:57.456Z,8.23
2023-04-05T20:09:28.805Z,7.18
2023-04-05T20:11:59.904Z,7.20
2023-04-05T20:14:30.996Z,7.03
2023-04-05T20:16:59.939Z,6.60
2023-04-05T20:19:31.948Z,6.78
2023-04-05T20:22:02.419Z,6.68
2023-04-05T20:24:31.715Z,6.43
2023-04-05T20:27:03.088Z,6.60
2023-04-05T20:29:33.095Z,6.78
2023-04-05T20:32:02.531Z,6.47
2023-04-05T20:34:35.476Z,6.93
2023-04-05T20:37:07.280Z,6.72
2023-04-05T20:39:36.247Z,7.65
2023-04-05T20:42:07.135Z,7.53
2023-04-05T20:44:36.313Z,7.40
2023-04-05T20:47:05.103Z,7.80
2023-04-05T20:49:35.997Z,7.13
2023-04-05T20:52:07.644Z,7.07
2023-04-05T20:54:36.833Z,7.97
2023-04-05T20:57:05.482Z,8.00
2023-04-05T20:59:34.369Z,7.90
2023-04-05T21:02:03.173Z,8.60
2023-04-05T21:04:32.043Z,7.97
2023-04-05T21:07:02.416Z,7.85
2023-04-05T21:09:31.222Z,7.10
2023-04-05T21:12:00.113Z,7.38
2023-04-05T21:14:28.811Z,6.88
2023-04-05T21:16:57.549Z,6.32
2023-04-05T21:19:26.240Z,7.03
2023-04-05T21:21:55.019Z,8.02
2023-04-05T21:24:25.090Z,7.88
2023-04-05T21:26:53.828Z,7.80
2023-04-05T21:29:22.459Z,8.65
2023-04-05T21:31:51.152Z,8.43
2023-04-05T21:34:19.871Z,8.00
2023-04-05T21:36:48.605Z,7.20
2023-04-05T21:39:17.463Z,7.38
2023-04-05T21:41:47.499Z,7.90
2023-04-05T21:44:16.290Z,7.82
2023-04-05T21:46:45.216Z,7.82
2023-04-05T21:49:14.189Z,8.50
2023-04-05T21:51:43.104Z,8.27
2023-04-05T21:54:11.740Z,7.57
2023-04-05T21:56:40.628Z,8.27
2023-04-05T21:59:11.756Z,7.90
2023-04-05T22:01:40.506Z,10.23
2023-04-05T22:04:09.190Z,9.25
2023-04-05T22:06:37.913Z,9.15
2023-04-05T22:09:06.939Z,9.60
2023-04-05T22:11:35.998Z,9.27
2023-04-05T22:14:04.922Z,9.07
2023-04-05T22:16:35.425Z,9.35
2023-04-05T22:19:04.395Z,9.23
2023-04-05T22:21:33.098Z,8.43
2023-04-05T22:24:01.839Z,8.90
2023-04-05T22:26:32.417Z,8.68
2023-04-05T22:29:01.958Z,8.95
2023-04-05T22:31:31.024Z,9.63
2023-04-05T22:34:01.103Z,9.20
2023-04-05T22:36:29.738Z,9.10
2023-04-05T22:38:58.616Z,9.02
2023-04-05T22:41:27.318Z,8.80
2023-04-05T22:43:55.989Z,9.35
2023-04-05T22:46:24.705Z,8.90
2023-04-05T22:48:53.415Z,9.27
2023-04-05T22:51:23.484Z,8.82
2023-04-05T22:53:52.344Z,8.88
2023-04-05T22:56:21.550Z,9.52
2023-04-05T22:58:50.625Z,9.02
2023-04-05T23:01:19.822Z,9.15
2023-04-05T23:03:48.493Z,9.02
2023-04-05T23:06:17.178Z,9.20
2023-04-05T23:08:47.288Z,8.98
2023-04-05T23:11:16.027Z,9.80
2023-04-05T23:13:44.747Z,8.07
2023-04-05T23:16:13.418Z,9.00
2023-04-05T23:18:42.192Z,9.68
2023-04-05T23:21:10.928Z,9.50
2023-04-05T23:23:40.052Z,9.30
2023-04-05T23:26:11.262Z,8.88
2023-04-05T23:28:40.706Z,9.07
2023-04-05T23:31:09.833Z,8.65
2023-04-05T23:33:39.035Z,8.40
2023-04-05T23:36:09.324Z,8.88
2023-04-05T23:38:38.476Z,8.55
2023-04-05T23:41:07.589Z,8.98
2023-04-05T23:43:38.012Z,9.15
2023-04-05T23:46:07.870Z,8.70
2023-04-05T23:48:36.568Z,8.40
2023-04-05T23:51:05.721Z,9.40
2023-04-05T23:53:34.435Z,10.18
2023-04-05T23:56:03.384Z,9.35
2023-04-05T23:58:32.103Z,9.23
